createdAt,value
2022-08-26T00:01:11.686Z,101695.06
2022-08-26T00:03:39.195Z,101688.97
2022-08-26T00:06:07.057Z,101690.75
2022-08-26T00:08:35.360Z,101689.94
2022-08-26T00:11:04.930Z,101688.13
2022-08-26T00:13:33.879Z,101688.13
2022-08-26T00:16:00.479Z,101689.09
2022-08-26T00:18:27.303Z,101689.94
2022-08-26T00:20:57.431Z,101701.25
2022-08-26T00:23:24.084Z,101688.25
2022-08-26T00:25:51.477Z,101696.13
2022-08-26T00:28:19.015Z,101693.50
2022-08-26T00:30:49.132Z,101692.56
2022-08-26T00:33:19.912Z,101685.63
2022-08-26T00:35:47.643Z,101691.81
2022-08-26T00:38:14.727Z,101686.47
2022-08-26T00:40:47.197Z,101684.78
2022-08-26T00:43:15.610Z,101679.53
2022-08-26T00:45:50.736Z,101679.53
2022-08-26T00:48:21.127Z,101691.81
2022-08-26T00:50:52.825Z,101697.94
2022-08-26T00:53:25.920Z,101699.69
2022-08-26T00:56:03.600Z,101692.69
2022-08-26T00:58:33.850Z,101697.94
2022-08-26T01:01:01.388Z,101698.06
2022-08-26T01:03:30.807Z,101698.88
2022-08-26T01:06:00.120Z,101691.94
2022-08-26T01:08:27.886Z,101689.31
2022-08-26T01:10:57.078Z,101694.44
2022-08-26T01:13:23.989Z,101693.75
2022-08-26T01:15:55.600Z,101691.13
2022-08-26T01:18:22.329Z,101683.25
2022-08-26T01:21:02.845Z,101678.00
2022-08-26T01:23:34.398Z,101682.44
2022-08-26T01:26:06.315Z,101681.44
2022-08-26T01:28:34.867Z,101670.13
2022-08-26T01:31:03.979Z,101678.00
2022-08-26T01:33:50.863Z,101679.81
2022-08-26T01:36:17.337Z,101688.50
2022-08-26T01:38:44.643Z,101685.06
2022-08-26T01:41:19.731Z,101692.94
2022-08-26T01:43:55.665Z,101687.69
2022-08-26T01:46:23.990Z,101687.69
2022-08-26T01:48:54.538Z,101686.81
2022-08-26T01:51:23.199Z,101688.63
2022-08-26T01:53:49.607Z,101686.81
2022-08-26T01:56:16.387Z,101697.31
2022-08-26T01:58:46.631Z,101687.81
2022-08-26T02:01:13.876Z,101684.31
2022-08-26T02:04:01.147Z,101680.88
2022-08-26T02:06:27.630Z,101695.69
2022-08-26T02:08:56.600Z,101693.88
2022-08-26T02:11:23.074Z,101700.09
2022-08-26T02:13:53.853Z,101695.69
2022-08-26T02:16:24.612Z,101694.81
2022-08-26T02:18:53.275Z,101697.47
2022-08-26T02:21:19.937Z,101692.19
2022-08-26T02:23:46.371Z,101695.81
2022-08-26T02:26:19.229Z,101693.19
2022-08-26T02:29:18.140Z,101694.81
2022-08-26T02:31:48.396Z,101697.47
2022-08-26T02:34:23.057Z,101691.38
2022-08-26T02:36:49.475Z,101686.94
2022-08-26T02:39:22.385Z,101688.75
2022-08-26T02:41:49.354Z,101690.69
2022-08-26T02:44:15.701Z,101691.50
2022-08-26T02:46:42.900Z,101681.00
2022-08-26T02:49:13.840Z,101682.69
2022-08-26T02:51:40.645Z,101673.13
2022-08-26T02:54:09.557Z,101670.50
2022-08-26T02:56:36.142Z,101666.06
2022-08-26T02:59:02.585Z,101668.81
2022-08-26T03:01:32.490Z,101679.31
2022-08-26T03:04:01.192Z,101680.19
2022-08-26T03:06:27.809Z,101681.00
2022-08-26T03:08:55.748Z,101675.75
2022-08-26T03:11:22.403Z,101670.50
2022-08-26T03:13:49.307Z,101675.88
2022-08-26T03:16:16.556Z,101679.31
2022-08-26T03:18:43.176Z,101686.38
2022-08-26T03:21:19.534Z,101694.25
2022-08-26T03:23:46.051Z,101681.13
2022-08-26T03:26:14.261Z,101675.88
2022-08-26T03:28:59.585Z,101680.41
2022-08-26T03:31:25.975Z,101678.50
2022-08-26T03:33:55.607Z,101677.69
2022-08-26T03:36:25.371Z,101675.06
2022-08-26T03:38:52.312Z,101682.94
2022-08-26T03:41:18.691Z,101680.41
2022-08-26T03:43:47.568Z,101682.94
2022-08-26T03:46:14.297Z,101683.88
2022-08-26T03:48:40.874Z,101684.81
2022-08-26T03:51:14.463Z,101686.50
2022-08-26T03:53:45.970Z,101683.03
2022-08-26T03:56:12.760Z,101680.31
2022-08-26T03:58:39.453Z,101679.56
2022-08-26T04:01:09.786Z,101683.03
2022-08-26T04:03:54.752Z,101688.28
2022-08-26T04:06:21.244Z,101684.81
2022-08-26T04:08:48.164Z,101677.78
2022-08-26T04:11:22.131Z,101679.56
2022-08-26T04:13:49.380Z,101678.75
2022-08-26T04:16:17.512Z,101681.38
2022-08-26T04:18:46.932Z,101674.31
2022-08-26T04:21:15.384Z,101672.66
2022-08-26T04:23:47.581Z,101671.00
2022-08-26T04:26:15.092Z,101664.78
2022-08-26T04:28:41.514Z,101662.13
2022-08-26T04:31:12.229Z,101667.53
2022-08-26T04:33:41.718Z,101671.81
2022-08-26T04:36:09.022Z,101665.75
2022-08-26T04:38:35.882Z,101665.75
2022-08-26T04:41:03.250Z,101671.81
2022-08-26T04:43:32.063Z,101671.81
2022-08-26T04:46:01.811Z,101675.41
2022-08-26T04:48:32.638Z,101675.41
2022-08-26T04:51:03.022Z,101681.50
2022-08-26T04:53:31.545Z,101684.13
2022-08-26T04:55:57.963Z,101692.00
2022-08-26T04:58:25.180Z,101691.16
2022-08-26T05:00:53.769Z,101697.25
2022-08-26T05:03:20.845Z,101687.72
2022-08-26T05:05:49.961Z,101695.59
2022-08-26T05:08:18.774Z,101697.38
2022-08-26T05:10:50.823Z,101697.25
2022-08-26T05:13:20.552Z,101705.97
2022-08-26T05:15:48.221Z,101699.03
2022-08-26T05:18:17.188Z,101703.47
2022-08-26T05:20:49.816Z,101701.66
2022-08-26T05:23:17.419Z,101703.47
2022-08-26T05:25:47.114Z,101709.66
2022-08-26T05:28:15.951Z,101720.16
2022-08-26T05:30:42.496Z,101718.41
2022-08-26T05:33:12.235Z,101707.03
2022-08-26T05:35:39.232Z,101713.97
2022-08-26T05:38:12.395Z,101708.84
2022-08-26T05:40:41.985Z,101720.16
2022-08-26T05:43:10.541Z,101717.66
2022-08-26T05:45:42.319Z,101723.97
2022-08-26T05:48:12.681Z,101725.09
2022-08-26T05:50:45.337Z,101721.13
2022-08-26T05:53:13.457Z,101727.81
2022-08-26T05:55:50.777Z,101739.25
2022-08-26T05:58:22.365Z,101735.31
2022-08-26T06:01:06.221Z,101731.50
2022-08-26T06:03:34.775Z,101734.50
2022-08-26T06:06:10.701Z,101737.50
2022-08-26T06:08:38.114Z,101734.28
2022-08-26T06:11:10.768Z,101741.31
2022-08-26T06:13:45.511Z,101741.41
2022-08-26T06:16:16.542Z,101736.41
2022-08-26T06:18:45.448Z,101741.66
2022-08-26T06:21:18.323Z,101746.31
2022-08-26T06:24:04.973Z,101754.28
2022-08-26T06:26:32.195Z,101749.28
2022-08-26T06:28:59.685Z,101739.03
2022-08-26T06:31:28.936Z,101750.50
2022-08-26T06:33:55.822Z,101755.00
2022-08-26T06:36:25.376Z,101756.06
2022-08-26T06:38:53.599Z,101760.50
2022-08-26T06:41:21.453Z,101754.41
2022-08-26T06:43:48.058Z,101756.19
2022-08-26T06:46:17.202Z,101765.72
2022-08-26T06:48:45.495Z,101759.53
2022-08-26T06:51:14.976Z,101766.56
2022-08-26T06:53:45.409Z,101760.50
2022-08-26T06:56:12.727Z,101767.41
2022-08-26T06:58:40.592Z,101761.19
2022-08-26T07:01:30.294Z,101764.78
2022-08-26T07:04:01.254Z,101770.16
2022-08-26T07:06:28.140Z,101771.81
2022-08-26T07:09:01.594Z,101770.50
2022-08-26T07:11:30.977Z,101782.31
2022-08-26T07:13:58.895Z,101775.06
2022-08-26T07:16:27.450Z,101787.09
2022-08-26T07:18:54.386Z,101787.22
2022-08-26T07:21:22.304Z,101786.38
2022-08-26T07:23:50.784Z,101789.97
2022-08-26T07:26:26.652Z,101797.00
2022-08-26T07:28:56.434Z,101797.69
2022-08-26T07:31:25.722Z,101792.22
2022-08-26T07:33:52.717Z,101792.84
2022-08-26T07:36:21.304Z,101798.66
2022-08-26T07:38:48.315Z,101802.03
2022-08-26T07:41:17.473Z,101814.09
2022-08-26T07:43:45.439Z,101807.97
2022-08-26T07:46:18.311Z,101812.28
2022-08-26T07:48:48.386Z,101815.63
2022-08-26T07:51:17.484Z,101813.84
2022-08-26T07:53:44.811Z,101818.13
2022-08-26T07:56:14.780Z,101815.38
2022-08-26T07:58:41.364Z,101823.13
2022-08-26T08:01:09.129Z,101817.88
2022-08-26T08:03:35.687Z,101819.44
2022-08-26T08:06:02.062Z,101816.00
2022-08-26T08:08:29.063Z,101826.38
2022-08-26T08:10:56.278Z,101827.19
2022-08-26T08:13:24.004Z,101818.50
2022-08-26T08:15:50.664Z,101819.31
2022-08-26T08:18:17.904Z,101822.81
2022-08-26T08:21:04.688Z,101816.69
2022-08-26T08:23:34.183Z,101820.19
2022-08-26T08:26:06.465Z,101816.56
2022-08-26T08:28:35.525Z,101813.94
2022-08-26T08:31:02.204Z,101812.31
2022-08-26T08:33:32.379Z,101815.75
2022-08-26T08:36:00.438Z,101823.50
2022-08-26T08:38:27.527Z,101818.25
2022-08-26T08:40:53.953Z,101828.75
2022-08-26T08:43:40.155Z,101829.56
2022-08-26T08:46:16.515Z,101833.06
2022-08-26T08:48:47.566Z,101832.44
2022-08-26T08:51:45.842Z,101835.31
2022-08-26T08:54:13.102Z,101829.94
2022-08-26T08:56:44.675Z,101829.00
2022-08-26T08:59:16.676Z,101830.06
2022-08-26T09:02:28.773Z,101835.44
2022-08-26T09:05:06.218Z,101833.75
2022-08-26T09:07:43.131Z,101839.72
2022-08-26T09:10:43.910Z,101841.41
2022-08-26T09:13:17.146Z,101845.81
2022-08-26T09:16:10.033Z,101844.97
2022-08-26T09:18:54.059Z,101845.81
2022-08-26T09:21:25.961Z,101850.34
2022-08-26T09:23:55.702Z,101850.47
2022-08-26T09:26:29.306Z,101841.97
2022-08-26T09:31:47.999Z,101846.53
2022-08-26T09:34:21.739Z,101849.03
2022-08-26T09:36:50.143Z,101851.66
2022-08-26T09:39:38.037Z,101852.59
2022-08-26T09:42:18.673Z,101854.97
2022-08-26T09:45:00.183Z,101852.25
2022-08-26T09:47:32.459Z,101849.50
2022-08-26T09:50:09.566Z,101849.38
2022-08-26T09:52:36.380Z,101848.31
2022-08-26T09:55:09.215Z,101852.50
2022-08-26T09:57:45.612Z,101849.75
2022-08-26T10:00:58.514Z,101847.94
2022-08-26T10:03:31.625Z,101847.84
2022-08-26T10:06:08.503Z,101842.59
2022-08-26T10:08:47.693Z,101851.19
2022-08-26T10:11:24.383Z,101853.81
2022-08-26T10:14:03.028Z,101854.75
2022-08-26T10:16:55.908Z,101851.44
2022-08-26T10:19:29.296Z,101845.56
2022-08-26T10:22:23.061Z,101845.81
2022-08-26T10:24:55.490Z,101837.09
2022-08-26T10:27:53.810Z,101843.41
2022-08-26T10:30:23.483Z,101834.59
2022-08-26T10:32:57.882Z,101839.13
2022-08-26T10:35:24.584Z,101843.31
2022-08-26T10:37:58.408Z,101843.19
2022-08-26T10:40:29.376Z,101842.00
2022-08-26T10:43:18.415Z,101844.50
2022-08-26T10:45:51.712Z,101846.19
2022-08-26T10:48:47.806Z,101839.13
2022-08-26T10:51:18.599Z,101847.84
2022-08-26T10:53:51.455Z,101841.63
2022-08-26T10:56:43.384Z,101844.25
2022-08-26T10:59:45.200Z,101853.81
2022-08-26T11:02:33.430Z,101842.38
2022-08-26T11:05:04.383Z,101841.41
2022-08-26T11:07:33.690Z,101845.81
2022-08-26T11:10:03.886Z,101849.16
2022-08-26T11:12:36.196Z,101847.38
2022-08-26T11:15:08.713Z,101848.22
2022-08-26T11:17:43.891Z,101847.38
2022-08-26T11:20:23.847Z,101839.50
2022-08-26T11:22:52.979Z,101847.16
2022-08-26T11:25:24.381Z,101848.84
2022-08-26T11:27:58.046Z,101849.69
2022-08-26T11:30:25.001Z,101853.97
2022-08-26T11:32:58.039Z,101852.19
2022-08-26T11:35:24.581Z,101857.44
2022-08-26T11:37:57.573Z,101852.19
2022-08-26T11:40:38.269Z,101856.59
2022-08-26T11:43:12.383Z,101846.94
2022-08-26T11:45:45.625Z,101859.94
2022-08-26T11:48:20.084Z,101859.94
2022-08-26T11:51:00.408Z,101852.06
2022-08-26T11:53:27.950Z,101853.00
2022-08-26T11:55:58.222Z,101853.88
2022-08-26T11:58:26.907Z,101838.94
2022-08-26T12:00:58.328Z,101851.13
2022-08-26T12:03:38.869Z,101845.00
2022-08-26T12:06:30.283Z,101845.88
2022-08-26T12:09:01.844Z,101845.88
2022-08-26T12:11:31.739Z,101851.00
2022-08-26T12:14:04.731Z,101849.31
2022-08-26T12:16:36.974Z,101858.03
2022-08-26T12:19:27.492Z,101853.63
2022-08-26T12:22:01.424Z,101859.00
2022-08-26T12:24:28.302Z,101857.06
2022-08-26T12:27:16.638Z,101855.38
2022-08-26T12:29:43.452Z,101852.75
2022-08-26T12:32:18.196Z,101853.63
2022-08-26T12:34:48.839Z,101851.94
2022-08-26T12:37:15.544Z,101861.38
2022-08-26T12:39:46.699Z,101857.06
2022-08-26T12:42:12.982Z,101854.44
2022-08-26T12:44:53.126Z,101871.03
2022-08-26T12:47:42.130Z,101869.25
2022-08-26T12:50:25.643Z,101868.41
2022-08-26T12:52:59.073Z,101876.28
2022-08-26T12:55:53.865Z,101871.88
2022-08-26T12:58:24.683Z,101871.03
2022-08-26T13:01:06.647Z,101870.09
2022-08-26T13:03:45.391Z,101872.72
2022-08-26T13:06:25.649Z,101878.81
2022-08-26T13:08:57.873Z,101865.78
2022-08-26T13:11:40.426Z,101856.00
2022-08-26T13:14:23.678Z,101860.31
2022-08-26T13:16:51.817Z,101855.75
2022-08-26T13:19:20.953Z,101856.59
2022-08-26T13:21:49.968Z,101858.38
2022-08-26T13:24:21.136Z,101855.75
2022-08-26T13:26:51.363Z,101860.91
2022-08-26T13:29:18.207Z,101860.91
2022-08-26T13:31:45.557Z,101856.47
2022-08-26T13:34:15.622Z,101849.31
2022-08-26T13:36:45.001Z,101851.94
2022-08-26T13:39:12.111Z,101854.44
2022-08-26T13:41:38.517Z,101844.78
2022-08-26T13:44:05.289Z,101851.72
2022-08-26T13:46:31.880Z,101849.19
2022-08-26T13:48:58.533Z,101845.75
2022-08-26T13:51:26.158Z,101843.94
2022-08-26T13:53:53.137Z,101857.09
2022-08-26T13:56:19.883Z,101855.28
2022-08-26T13:58:46.441Z,101857.31
2022-08-26T14:01:14.206Z,101852.06
2022-08-26T14:03:40.956Z,101859.22
2022-08-26T14:06:07.556Z,101859.44
2022-08-26T14:08:34.112Z,101854.44
2022-08-26T14:11:00.584Z,101857.19
2022-08-26T14:13:27.117Z,101852.88
2022-08-26T14:15:53.901Z,101854.69
2022-08-26T14:18:26.365Z,101857.44
2022-08-26T14:20:54.972Z,101859.34
2022-08-26T14:23:22.480Z,101856.72
2022-08-26T14:25:48.972Z,101861.22
2022-08-26T14:28:15.388Z,101849.75
2022-08-26T14:30:44.002Z,101857.56
2022-08-26T14:33:13.082Z,101848.09
2022-08-26T14:35:40.475Z,101849.75
2022-08-26T14:38:14.847Z,101847.88
2022-08-26T14:40:44.529Z,101845.00
2022-08-26T14:43:15.071Z,101843.13
2022-08-26T14:48:14.744Z,101841.94
2022-08-26T14:50:41.156Z,101841.94
2022-08-26T14:53:25.838Z,101840.94
2022-08-26T14:55:52.617Z,101834.75
2022-08-26T14:58:18.967Z,101826.75
2022-08-26T15:00:45.325Z,101829.38
2022-08-26T15:03:11.777Z,101824.94
2022-08-26T15:05:39.763Z,101827.47
2022-08-26T15:08:10.131Z,101830.09
2022-08-26T15:10:36.814Z,101820.44
2022-08-26T15:13:03.195Z,101830.94
2022-08-26T15:15:29.685Z,101832.72
2022-08-26T15:17:56.456Z,101833.31
2022-08-26T15:20:23.175Z,101829.75
2022-08-26T15:22:49.601Z,101835.00
2022-08-26T15:25:19.687Z,101836.06
2022-08-26T15:27:46.115Z,101831.06
2022-08-26T15:30:12.980Z,101825.94
2022-08-26T15:32:39.451Z,101830.31
2022-08-26T15:35:09.095Z,101833.94
2022-08-26T15:37:36.215Z,101815.56
2022-08-26T15:40:03.488Z,101818.28
2022-08-26T15:42:29.907Z,101816.63
2022-08-26T15:44:56.257Z,101822.00
2022-08-26T15:47:23.655Z,101820.31
2022-08-26T15:49:50.189Z,101813.38
2022-08-26T15:52:17.211Z,101818.75
2022-08-26T15:54:43.619Z,101821.50
2022-08-26T15:57:12.400Z,101824.13
2022-08-26T15:59:40.211Z,101818.06
2022-08-26T16:02:07.364Z,101821.63
2022-08-26T16:04:33.960Z,101805.03
2022-08-26T16:07:00.837Z,101817.34
2022-08-26T16:09:28.633Z,101811.22
2022-08-26T16:11:57.327Z,101818.25
2022-08-26T16:14:25.520Z,101819.44
2022-08-26T16:16:51.918Z,101812.53
2022-08-26T16:19:18.856Z,101815.38
2022-08-26T16:21:45.391Z,101820.53
2022-08-26T16:24:12.566Z,101816.34
2022-08-26T16:26:41.317Z,101817.31
2022-08-26T16:29:13.832Z,101812.06
2022-08-26T16:31:41.118Z,101813.63
2022-08-26T16:34:08.397Z,101814.31
2022-08-26T16:36:36.629Z,101810.63
2022-08-26T16:39:05.126Z,101821.72
2022-08-26T16:41:31.884Z,101825.09
2022-08-26T16:43:58.718Z,101823.31
2022-08-26T16:46:26.406Z,101825.81
2022-08-26T16:48:57.092Z,101826.63
2022-08-26T16:51:27.049Z,101832.75
2022-08-26T16:53:56.284Z,101826.63
2022-08-26T16:56:33.816Z,101832.63
2022-08-26T16:59:01.115Z,101832.63
2022-08-26T17:01:27.613Z,101836.06
2022-08-26T17:03:54.262Z,101831.63
2022-08-26T17:06:20.720Z,101837.88
2022-08-26T17:08:47.547Z,101843.94
2022-08-26T17:11:15.158Z,101840.50
2022-08-26T17:13:41.661Z,101835.13
2022-08-26T17:16:09.865Z,101840.63
2022-08-26T17:18:36.916Z,101835.09
2022-08-26T17:21:07.350Z,101839.75
2022-08-26T17:23:34.313Z,101837.25
2022-08-26T17:26:00.946Z,101838.19
2022-08-26T17:28:27.338Z,101844.50
2022-08-26T17:30:56.502Z,101848.19
2022-08-26T17:33:24.713Z,101855.59
2022-08-26T17:35:52.888Z,101853.56
2022-08-26T17:38:19.337Z,101848.06
2022-08-26T17:40:45.692Z,101848.94
2022-08-26T17:43:12.564Z,101857.50
2022-08-26T17:45:40.429Z,101853.09
2022-08-26T17:48:07.812Z,101858.34
2022-08-26T17:50:34.318Z,101857.38
2022-08-26T17:53:00.663Z,101855.63
2022-08-26T17:55:27.122Z,101857.28
2022-08-26T17:57:53.993Z,101858.44
2022-08-26T18:00:22.676Z,101852.75
2022-08-26T18:02:49.084Z,101863.47
2022-08-26T18:05:17.366Z,101864.66
2022-08-26T18:07:44.758Z,101868.09
2022-08-26T18:10:15.326Z,101870.03
2022-08-26T18:12:42.160Z,101869.28
2022-08-26T18:15:10.682Z,101868.69
2022-08-26T18:17:39.190Z,101869.53
2022-08-26T18:20:08.482Z,101870.50
2022-08-26T18:22:34.874Z,101867.00
2022-08-26T18:25:01.229Z,101870.72
2022-08-26T18:27:27.584Z,101868.09
2022-08-26T18:29:56.351Z,101870.72
2022-08-26T18:32:22.915Z,101870.00
2022-08-26T18:34:49.368Z,101878.59
2022-08-26T18:37:15.768Z,101883.38
2022-08-26T18:39:42.152Z,101875.97
2022-08-26T18:42:08.876Z,101877.53
2022-08-26T18:44:35.476Z,101877.41
2022-08-26T18:47:02.112Z,101880.88
2022-08-26T18:49:29.256Z,101880.78
2022-08-26T18:51:55.668Z,101887.69
2022-08-26T18:54:22.344Z,101888.41
2022-08-26T18:56:48.785Z,101886.50
2022-08-26T18:59:15.275Z,101889.13
2022-08-26T19:01:42.535Z,101889.25
2022-08-26T19:04:14.766Z,101890.94
2022-08-26T19:06:45.147Z,101895.31
2022-08-26T19:09:12.288Z,101897.72
2022-08-26T19:11:43.053Z,101902.88
2022-08-26T19:14:13.490Z,101909.78
2022-08-26T19:16:41.855Z,101904.63
2022-08-26T19:19:08.372Z,101903.81
2022-08-26T19:21:36.394Z,101902.97
2022-08-26T19:24:05.763Z,101909.06
2022-08-26T19:26:32.785Z,101904.63
2022-08-26T19:28:59.444Z,101909.06
2022-08-26T19:31:26.230Z,101904.63
2022-08-26T19:33:52.824Z,101906.44
2022-08-26T19:36:22.384Z,101903.81
2022-08-26T19:38:49.387Z,101905.59
2022-08-26T19:41:19.148Z,101906.44
2022-08-26T19:43:46.234Z,101918.72
2022-08-26T19:46:18.180Z,101914.19
2022-08-26T19:48:45.983Z,101919.44
2022-08-26T19:51:17.910Z,101915.88
2022-08-26T19:53:46.139Z,101917.53
2022-08-26T19:56:14.159Z,101911.44
2022-08-26T19:58:41.655Z,101921.25
2022-08-26T20:01:08.540Z,101923.00
2022-08-26T20:03:36.012Z,101917.88
2022-08-26T20:06:05.158Z,101924.94
2022-08-26T20:08:32.742Z,101926.69
2022-08-26T20:11:09.191Z,101922.44
2022-08-26T20:13:36.526Z,101926.81
2022-08-26T20:16:03.126Z,101921.56
2022-08-26T20:18:48.312Z,101922.31
2022-08-26T20:21:27.693Z,101916.09
2022-08-26T20:24:00.829Z,101909.06
2022-08-26T20:26:32.716Z,101902.88
2022-08-26T20:28:59.507Z,101906.31
2022-08-26T20:31:27.324Z,101910.75
2022-08-26T20:33:53.969Z,101916.81
2022-08-26T20:36:23.576Z,101920.28
2022-08-26T20:38:50.542Z,101916.00
2022-08-26T20:41:18.072Z,101910.75
2022-08-26T20:43:44.689Z,101915.03
2022-08-26T20:46:18.016Z,101906.31
2022-08-26T20:48:46.642Z,101918.50
2022-08-26T20:51:13.048Z,101908.13
2022-08-26T20:53:39.555Z,101916.81
2022-08-26T20:56:09.320Z,101918.63
2022-08-26T20:58:36.441Z,101915.03
2022-08-26T21:01:07.507Z,101907.25
2022-08-26T21:03:35.516Z,101912.50
2022-08-26T21:06:03.465Z,101917.88
2022-08-26T21:08:29.850Z,101920.50
2022-08-26T21:10:59.484Z,101922.31
2022-08-26T21:13:25.820Z,101918.81
2022-08-26T21:15:55.796Z,101917.19
2022-08-26T21:18:22.190Z,101913.69
2022-08-26T21:20:48.596Z,101914.56
2022-08-26T21:23:14.947Z,101912.03
2022-08-26T21:25:41.724Z,101912.88
2022-08-26T21:28:08.123Z,101912.88
2022-08-26T21:30:38.144Z,101922.53
2022-08-26T21:33:04.547Z,101925.16
2022-08-26T21:35:30.892Z,101926.13
2022-08-26T21:37:57.248Z,101927.78
2022-08-26T21:40:23.836Z,101916.56
2022-08-26T21:42:50.300Z,101921.81
2022-08-26T21:45:16.876Z,101924.44
2022-08-26T21:47:43.948Z,101922.78
2022-08-26T21:50:10.834Z,101924.53
2022-08-26T21:52:37.691Z,101928.84
2022-08-26T21:55:09.024Z,101930.66
2022-08-26T21:57:36.320Z,101926.22
2022-08-26T22:00:04.643Z,101923.72
2022-08-26T22:02:31.316Z,101935.91
2022-08-26T22:04:57.716Z,101933.28
2022-08-26T22:07:24.153Z,101937.69
2022-08-26T22:09:50.496Z,101935.16
2022-08-26T22:12:18.227Z,101931.72
2022-08-26T22:14:45.616Z,101932.53
2022-08-26T22:17:12.116Z,101936.97
2022-08-26T22:19:45.953Z,101936.09
2022-08-26T22:22:14.266Z,101937.78
2022-08-26T22:24:40.764Z,101939.59
2022-08-26T22:27:07.208Z,101930.03
2022-08-26T22:29:33.898Z,101930.84
2022-08-26T22:32:01.443Z,101935.28
2022-08-26T22:34:28.244Z,101931.84
2022-08-26T22:36:55.442Z,101936.22
2022-08-26T22:39:24.783Z,101929.22
2022-08-26T22:41:53.221Z,101934.56
2022-08-26T22:44:22.049Z,101936.22
2022-08-26T22:46:50.431Z,101933.59
2022-08-26T22:49:17.411Z,101931.94
2022-08-26T22:51:45.180Z,101930.16
2022-08-26T22:54:12.295Z,101933.59
2022-08-26T22:56:39.544Z,101926.69
2022-08-26T22:59:07.705Z,101928.47
2022-08-26T23:01:36.717Z,101923.22
2022-08-26T23:04:04.300Z,101930.16
2022-08-26T23:06:30.891Z,101927.66
2022-08-26T23:08:57.248Z,101930.28
2022-08-26T23:11:23.633Z,101922.41
2022-08-26T23:13:50.045Z,101920.59
2022-08-26T23:16:16.428Z,101921.56
2022-08-26T23:18:42.857Z,101925.84
2022-08-26T23:21:10.545Z,101920.72
2022-08-26T23:23:38.272Z,101911.06
2022-08-26T23:26:06.832Z,101921.56
2022-08-26T23:28:34.642Z,101918.22
2022-08-26T23:31:01.004Z,101911.19
2022-08-26T23:33:47.707Z,101912.00
2022-08-26T23:36:17.917Z,101918.09
2022-08-26T23:38:45.028Z,101920.84
2022-08-26T23:41:19.725Z,101916.53
2022-08-26T23:43:46.063Z,101913.91
2022-08-26T23:46:12.467Z,101912.13
2022-08-26T23:48:38.987Z,101910.44
2022-08-26T23:51:24.127Z,101913.81
2022-08-26T23:53:50.770Z,101907.72
2022-08-26T23:56:17.743Z,101907.72
2022-08-26T23:58:44.859Z,101905.09
